Terminal Aerodrome Forecast
Issued by NWS Springfield, MO

Home | Current Version | Previous Version | Text Only | Print | Product List | Glossary On
Versions: 1 2 3 4 5 6 7 8 9 10 11 12 13 14
022
FTUS43 KSGF 071617 AAA
TAFSGF
TAF AMD
KSGF 071617Z 0716/0812 26015G25KT P6SM BKN200
     FM071800 29015G25KT P6SM BKN200
     FM080000 29010KT P6SM BKN150
     FM080500 30013KT P6SM OVC100 WS020/32040KT
     FM080900 32013G20KT P6SM OVC050 WS020/32040KT=

USA.gov is the U.S. government's official web portal to all federal, state and local government web resources and services.